createdAt,value
2016-10-22T00:00:57.698Z,0
2016-10-22T00:01:57.755Z,0
2016-10-22T00:02:57.775Z,0
2016-10-22T00:03:57.460Z,0
2016-10-22T00:04:57.465Z,0
2016-10-22T00:05:57.432Z,0
2016-10-22T00:06:57.745Z,0
2016-10-22T00:07:57.433Z,0
2016-10-22T00:08:58.115Z,0
2016-10-22T00:09:58.075Z,0
2016-10-22T00:10:57.793Z,0
2016-10-22T00:11:57.827Z,0
2016-10-22T00:12:58.103Z,0
2016-10-22T00:13:57.526Z,0
2016-10-22T00:14:57.484Z,0
2016-10-22T00:15:57.592Z,0
2016-10-22T00:16:57.865Z,0
2016-10-22T00:17:58.123Z,0
2016-10-22T00:18:57.881Z,0
2016-10-22T00:19:57.578Z,0
2016-10-22T00:20:57.220Z,0
2016-10-22T00:21:57.530Z,0
2016-10-22T00:22:57.226Z,0
2016-10-22T00:23:57.633Z,0
2016-10-22T00:24:57.556Z,0
2016-10-22T00:25:57.877Z,0
2016-10-22T00:26:57.572Z,0
2016-10-22T00:27:57.918Z,0
2016-10-22T00:28:57.895Z,0
2016-10-22T00:29:57.588Z,0
2016-10-22T00:30:57.907Z,0
2016-10-22T00:31:57.919Z,0
2016-10-22T00:32:57.926Z,0
2016-10-22T00:33:57.981Z,0
2016-10-22T00:34:57.362Z,0
2016-10-22T00:35:57.370Z,0
2016-10-22T00:36:58.315Z,0
2016-10-22T00:37:57.648Z,0
2016-10-22T00:38:57.717Z,0
2016-10-22T00:39:57.973Z,0
2016-10-22T00:40:58.291Z,0
2016-10-22T00:41:57.360Z,0
2016-10-22T00:42:57.987Z,0
2016-10-22T00:43:57.999Z,0
2016-10-22T00:44:58.423Z,0
2016-10-22T00:45:57.757Z,0
2016-10-22T00:46:57.754Z,0
2016-10-22T00:47:58.135Z,0
2016-10-22T00:48:58.091Z,0
2016-10-22T00:49:58.706Z,0
2016-10-22T00:50:58.098Z,0
2016-10-22T00:51:58.106Z,0
2016-10-22T00:52:58.377Z,0
2016-10-22T00:53:58.075Z,0
2016-10-22T00:54:57.767Z,0
2016-10-22T00:55:58.397Z,0
2016-10-22T00:56:57.824Z,0
2016-10-22T00:57:58.459Z,0
2016-10-22T00:58:59.856Z,0
2016-10-22T00:59:58.116Z,0
2016-10-22T01:00:58.534Z,0
2016-10-22T01:01:58.176Z,0
2016-10-22T01:02:58.137Z,0
2016-10-22T01:03:58.143Z,0
2016-10-22T01:04:58.151Z,0
2016-10-22T01:05:58.186Z,0
2016-10-22T01:06:57.994Z,0
2016-10-22T01:07:57.858Z,0
2016-10-22T01:08:58.176Z,0
2016-10-22T01:09:57.920Z,0
2016-10-22T01:10:58.189Z,0
2016-10-22T01:11:58.248Z,0
2016-10-22T01:12:57.949Z,0
2016-10-22T01:13:58.210Z,0
2016-10-22T01:14:57.957Z,0
2016-10-22T01:15:58.223Z,0
2016-10-22T01:16:58.334Z,0
2016-10-22T01:17:58.290Z,0
2016-10-22T01:18:58.248Z,0
2016-10-22T01:19:58.342Z,0
2016-10-22T01:20:58.000Z,0
2016-10-22T01:21:58.416Z,0
2016-10-22T01:22:58.323Z,0
2016-10-22T01:23:57.971Z,0
2016-10-22T01:24:58.607Z,0
2016-10-22T01:25:58.294Z,0
2016-10-22T01:26:58.664Z,0
2016-10-22T01:27:58.045Z,0
2016-10-22T01:29:00.808Z,0
2016-10-22T01:29:58.330Z,0
2016-10-22T01:30:58.648Z,0
2016-10-22T01:31:58.389Z,0
2016-10-22T01:32:58.034Z,0
2016-10-22T01:33:58.039Z,0
2016-10-22T01:34:57.785Z,0
2016-10-22T01:35:58.730Z,0
2016-10-22T01:36:57.801Z,0
2016-10-22T01:37:58.116Z,0
2016-10-22T01:38:58.174Z,0
2016-10-22T01:39:58.084Z,0
2016-10-22T01:40:58.715Z,0
2016-10-22T01:41:57.830Z,0
2016-10-22T01:42:58.413Z,0
2016-10-22T01:43:58.422Z,0
2016-10-22T01:44:58.428Z,0
2016-10-22T01:45:58.748Z,0
2016-10-22T01:46:58.440Z,0
2016-10-22T01:47:58.138Z,0
2016-10-22T01:48:58.455Z,0
2016-10-22T01:49:58.197Z,0
2016-10-22T01:50:58.210Z,0
2016-10-22T01:51:58.828Z,0
2016-10-22T01:52:58.180Z,0
2016-10-22T01:53:58.850Z,0
2016-10-22T01:54:58.185Z,0
2016-10-22T01:55:58.558Z,0
2016-10-22T01:56:58.829Z,0
2016-10-22T01:57:57.945Z,0
2016-10-22T01:58:58.539Z,0
2016-10-22T01:59:58.012Z,0
2016-10-22T02:00:58.276Z,0
2016-10-22T02:01:58.334Z,0
2016-10-22T02:02:57.979Z,0
2016-10-22T02:03:57.985Z,0
2016-10-22T02:04:58.304Z,0
2016-10-22T02:05:58.260Z,0
2016-10-22T02:06:58.678Z,0
2016-10-22T02:07:58.668Z,0
2016-10-22T02:08:58.957Z,0
2016-10-22T02:09:59.069Z,0
2016-10-22T02:10:58.710Z,0
2016-10-22T02:11:58.927Z,0
2016-10-22T02:12:58.932Z,0
2016-10-22T02:13:58.682Z,0
2016-10-22T02:14:58.321Z,0
2016-10-22T02:15:58.958Z,0
2016-10-22T02:16:58.027Z,0
2016-10-22T02:17:58.707Z,0
2016-10-22T02:18:59.028Z,0
2016-10-22T02:19:58.676Z,0
2016-10-22T02:20:58.372Z,0
2016-10-22T02:21:58.420Z,0
2016-10-22T02:22:58.484Z,0
2016-10-22T02:23:58.140Z,0
2016-10-22T02:24:59.071Z,0
2016-10-22T02:25:58.808Z,0
2016-10-22T02:26:58.718Z,0
2016-10-22T02:27:58.979Z,0
2016-10-22T02:28:58.731Z,0
2016-10-22T02:29:58.429Z,0
2016-10-22T02:30:58.751Z,0
2016-10-22T02:31:58.801Z,0
2016-10-22T02:32:58.499Z,0
2016-10-22T02:33:58.533Z,0
2016-10-22T02:34:58.858Z,0
2016-10-22T02:35:58.621Z,0
2016-10-22T02:36:58.789Z,0
2016-10-22T02:37:59.166Z,0
2016-10-22T02:38:58.849Z,0
2016-10-22T02:39:58.901Z,0
2016-10-22T02:40:58.866Z,0
2016-10-22T02:41:58.922Z,0
2016-10-22T02:42:58.884Z,0
2016-10-22T02:43:58.843Z,0
2016-10-22T02:44:58.581Z,0
2016-10-22T02:45:59.164Z,0
2016-10-22T02:46:59.169Z,0
2016-10-22T02:47:58.965Z,0
2016-10-22T02:48:59.284Z,0
2016-10-22T02:49:59.239Z,0
2016-10-22T02:50:58.572Z,0
2016-10-22T02:51:58.577Z,0
2016-10-22T02:52:58.274Z,0
2016-10-22T02:53:58.639Z,0
2016-10-22T02:54:58.600Z,0
2016-10-22T02:55:58.653Z,0
2016-10-22T02:56:58.711Z,0
2016-10-22T02:57:59.027Z,0
2016-10-22T02:58:58.937Z,0
2016-10-22T02:59:58.947Z,0
2016-10-22T03:00:58.639Z,0
2016-10-22T03:01:58.957Z,0
2016-10-22T03:02:59.284Z,0
2016-10-22T03:03:58.662Z,0
2016-10-22T03:04:58.985Z,0
2016-10-22T03:05:59.347Z,0
2016-10-22T03:06:58.679Z,0
2016-10-22T03:07:59.364Z,0
2016-10-22T03:08:59.056Z,0
2016-10-22T03:09:58.722Z,0
2016-10-22T03:10:59.020Z,0
2016-10-22T03:11:59.128Z,0
2016-10-22T03:12:58.756Z,0
2016-10-22T03:13:59.408Z,0
2016-10-22T03:14:59.054Z,0
2016-10-22T03:15:59.104Z,0
2016-10-22T03:16:59.374Z,0
2016-10-22T03:17:58.752Z,0
2016-10-22T03:18:59.071Z,0
2016-10-22T03:19:58.821Z,0
2016-10-22T03:20:59.401Z,0
2016-10-22T03:21:58.783Z,0
2016-10-22T03:22:58.480Z,0
2016-10-22T03:23:59.106Z,0
2016-10-22T03:24:59.166Z,0
2016-10-22T03:25:58.547Z,0
2016-10-22T03:26:58.872Z,0
2016-10-22T03:27:59.187Z,0
2016-10-22T03:28:59.081Z,0
2016-10-22T03:29:59.206Z,0
2016-10-22T03:30:59.205Z,0
2016-10-22T03:31:58.540Z,0
2016-10-22T03:32:59.277Z,0
2016-10-22T03:33:59.182Z,0
2016-10-22T03:34:58.922Z,0
2016-10-22T03:35:59.031Z,0
2016-10-22T03:36:59.203Z,0
2016-10-22T03:37:59.211Z,0
2016-10-22T03:38:58.949Z,0
2016-10-22T03:39:59.539Z,0
2016-10-22T03:40:58.966Z,0
2016-10-22T03:41:59.547Z,0
2016-10-22T03:42:59.603Z,0
2016-10-22T03:43:59.295Z,0
2016-10-22T03:44:59.575Z,0
2016-10-22T03:45:59.621Z,0
2016-10-22T03:46:59.583Z,0
2016-10-22T03:47:59.013Z,0
2016-10-22T03:48:58.968Z,0
2016-10-22T03:49:59.346Z,0
2016-10-22T03:50:59.345Z,0
2016-10-22T03:51:59.613Z,0
2016-10-22T03:52:58.995Z,0
2016-10-22T03:53:59.368Z,0
2016-10-22T03:54:59.685Z,0
2016-10-22T03:55:59.696Z,0
2016-10-22T03:56:59.339Z,0
2016-10-22T03:57:59.183Z,0
2016-10-22T03:58:59.354Z,0
2016-10-22T03:59:59.147Z,0
2016-10-22T04:00:59.052Z,0
2016-10-22T04:01:59.449Z,0
2016-10-22T04:02:59.384Z,0
2016-10-22T04:03:59.399Z,0
2016-10-22T04:04:59.395Z,0
2016-10-22T04:05:59.400Z,0
2016-10-22T04:06:59.414Z,0
2016-10-22T04:07:59.413Z,0
2016-10-22T04:08:59.419Z,0
2016-10-22T04:09:58.800Z,0
2016-10-22T04:10:59.121Z,0
2016-10-22T04:11:59.440Z,0
2016-10-22T04:12:59.446Z,0
2016-10-22T04:13:59.142Z,0
2016-10-22T04:14:59.545Z,0
2016-10-22T04:15:59.520Z,0
2016-10-22T04:16:59.215Z,0
2016-10-22T04:18:00.145Z,0
2016-10-22T04:18:59.802Z,0
2016-10-22T04:19:59.186Z,0
2016-10-22T04:20:59.819Z,0
2016-10-22T04:21:59.833Z,0
2016-10-22T04:22:59.829Z,0
2016-10-22T04:23:59.520Z,0
2016-10-22T04:24:59.853Z,0
2016-10-22T04:25:59.230Z,0
2016-10-22T04:26:59.545Z,0
2016-10-22T04:27:59.568Z,0
2016-10-22T04:28:59.616Z,0
2016-10-22T04:29:59.931Z,0
2016-10-22T04:30:59.308Z,0
2016-10-22T04:31:59.316Z,0
2016-10-22T04:32:59.323Z,0
2016-10-22T04:33:59.907Z,0
2016-10-22T04:34:59.388Z,0
2016-10-22T04:35:59.349Z,0
2016-10-22T04:36:59.612Z,0
2016-10-22T04:37:59.564Z,0
2016-10-22T04:38:59.978Z,0
2016-10-22T04:39:59.375Z,0
2016-10-22T04:40:59.632Z,0
2016-10-22T04:41:59.384Z,0
2016-10-22T04:42:59.706Z,0
2016-10-22T04:44:00.027Z,0
2016-10-22T04:44:59.356Z,0
2016-10-22T04:45:59.675Z,0
2016-10-22T04:46:59.687Z,0
2016-10-22T04:47:59.425Z,0
2016-10-22T04:48:59.746Z,0
2016-10-22T04:50:00.015Z,0
2016-10-22T04:50:59.713Z,0
2016-10-22T04:52:00.036Z,0
2016-10-22T04:52:59.414Z,0
2016-10-22T04:53:59.781Z,0
2016-10-22T04:54:59.427Z,0
2016-10-22T04:55:59.436Z,0
2016-10-22T04:56:59.177Z,0
2016-10-22T04:57:59.842Z,0
2016-10-22T04:59:14.385Z,0
2016-10-22T04:59:59.827Z,0
2016-10-22T05:00:59.524Z,0
2016-10-22T05:01:59.576Z,0
2016-10-22T05:03:00.166Z,0
2016-10-22T05:03:59.903Z,0
2016-10-22T05:04:59.493Z,0
2016-10-22T05:05:59.812Z,0
2016-10-22T05:06:59.822Z,0
2016-10-22T05:07:59.877Z,0
2016-10-22T05:09:00.153Z,0
2016-10-22T05:09:59.265Z,0
2016-10-22T05:10:59.848Z,0
2016-10-22T05:11:59.944Z,0
2016-10-22T05:12:59.914Z,0
2016-10-22T05:13:59.867Z,0
2016-10-22T05:14:59.617Z,0
2016-10-22T05:15:59.624Z,0
2016-10-22T05:16:59.827Z,0
2016-10-22T05:17:59.268Z,0
2016-10-22T05:18:59.954Z,0
2016-10-22T05:19:59.997Z,0
2016-10-22T05:20:59.703Z,0
2016-10-22T05:22:00.329Z,0
2016-10-22T05:23:00.292Z,0
2016-10-22T05:23:59.943Z,0
2016-10-22T05:24:59.632Z,0
2016-10-22T05:25:59.650Z,0
2016-10-22T05:26:59.954Z,0
2016-10-22T05:28:00.014Z,0
2016-10-22T05:28:59.711Z,0
2016-10-22T05:30:00.291Z,0
2016-10-22T05:30:59.989Z,0
2016-10-22T05:32:00.041Z,0
2016-10-22T05:32:59.741Z,0
2016-10-22T05:34:00.006Z,0
2016-10-22T05:35:00.115Z,0
2016-10-22T05:35:59.758Z,0
2016-10-22T05:37:00.339Z,0
2016-10-22T05:37:59.808Z,0
2016-10-22T05:39:00.103Z,0
2016-10-22T05:40:00.051Z,0
2016-10-22T05:40:59.789Z,0
2016-10-22T05:41:59.748Z,0
2016-10-22T05:43:00.479Z,0
2016-10-22T05:44:00.438Z,0
2016-10-22T05:45:00.081Z,0
2016-10-22T05:46:00.089Z,0
2016-10-22T05:47:00.147Z,0
2016-10-22T05:48:00.100Z,0
2016-10-22T05:48:59.483Z,4
2016-10-22T05:49:59.856Z,4
2016-10-22T05:51:00.192Z,4
2016-10-22T05:51:59.864Z,4
2016-10-22T05:53:00.187Z,4
2016-10-22T05:54:00.458Z,0
2016-10-22T05:55:00.464Z,4
2016-10-22T05:55:59.843Z,4
2016-10-22T05:56:59.852Z,4
2016-10-22T05:58:00.534Z,4
2016-10-22T05:58:59.866Z,4
2016-10-22T05:59:59.657Z,4
2016-10-22T06:00:59.621Z,4
2016-10-22T06:02:00.557Z,8
2016-10-22T06:02:59.946Z,8
2016-10-22T06:04:00.220Z,12
2016-10-22T06:04:59.947Z,12
2016-10-22T06:06:00.592Z,12
2016-10-22T06:07:00.550Z,8
2016-10-22T06:07:59.979Z,12
2016-10-22T06:09:00.246Z,8
2016-10-22T06:10:00.604Z,8
2016-10-22T06:11:00.574Z,12
2016-10-22T06:12:00.269Z,12
2016-10-22T06:13:00.326Z,16
2016-10-22T06:14:00.593Z,16
2016-10-22T06:14:59.664Z,16
2016-10-22T06:16:00.619Z,16
2016-10-22T06:17:00.665Z,16
2016-10-22T06:18:00.673Z,20
2016-10-22T06:19:00.059Z,24
2016-10-22T06:20:00.326Z,24
2016-10-22T06:21:00.329Z,24
2016-10-22T06:22:00.783Z,28
2016-10-22T06:23:00.706Z,32
2016-10-22T06:24:00.355Z,28
2016-10-22T06:25:00.046Z,32
2016-10-22T06:26:00.727Z,36
2016-10-22T06:27:00.371Z,40
2016-10-22T06:28:00.501Z,44
2016-10-22T06:28:59.761Z,44
2016-10-22T06:30:00.702Z,44
2016-10-22T06:31:00.399Z,48
2016-10-22T06:32:00.092Z,56
2016-10-22T06:33:00.506Z,56
2016-10-22T06:34:00.839Z,56
2016-10-22T06:35:00.822Z,60
2016-10-22T06:36:00.754Z,60
2016-10-22T06:37:01.202Z,60
2016-10-22T06:38:00.857Z,60
2016-10-22T06:39:00.142Z,60
2016-10-22T06:40:00.818Z,60
2016-10-22T06:41:00.466Z,72
2016-10-22T06:42:00.157Z,88
2016-10-22T06:43:00.477Z,100
2016-10-22T06:44:00.484Z,112
2016-10-22T06:45:00.192Z,104
2016-10-22T06:46:00.504Z,96
2016-10-22T06:47:00.503Z,100
2016-10-22T06:48:00.873Z,112
2016-10-22T06:49:00.834Z,120
2016-10-22T06:50:00.840Z,120
2016-10-22T06:51:00.587Z,120
2016-10-22T06:52:00.568Z,120
2016-10-22T06:53:00.551Z,116
2016-10-22T06:54:00.654Z,112
2016-10-22T06:55:00.663Z,112
2016-10-22T06:56:00.621Z,116
2016-10-22T06:57:00.576Z,116
2016-10-22T06:58:00.896Z,120
2016-10-22T06:59:15.518Z,124
2016-10-22T07:00:00.945Z,120
2016-10-22T07:01:00.288Z,124
2016-10-22T07:02:00.925Z,124
2016-10-22T07:03:00.614Z,124
2016-10-22T07:04:01.037Z,128
2016-10-22T07:05:00.942Z,132
2016-10-22T07:06:00.635Z,136
2016-10-22T07:07:00.071Z,140
2016-10-22T07:08:01.091Z,144
2016-10-22T07:09:00.660Z,152
2016-10-22T07:10:00.717Z,160
2016-10-22T07:11:00.093Z,172
2016-10-22T07:12:00.727Z,184
2016-10-22T07:13:00.735Z,188
2016-10-22T07:14:00.687Z,192
2016-10-22T07:15:00.703Z,208
2016-10-22T07:16:00.703Z,212
2016-10-22T07:17:00.814Z,216
2016-10-22T07:18:00.412Z,208
2016-10-22T07:19:00.098Z,220
2016-10-22T07:20:00.436Z,224
2016-10-22T07:21:01.051Z,228
2016-10-22T07:22:00.751Z,236
2016-10-22T07:23:00.753Z,240
2016-10-22T07:24:01.121Z,232
2016-10-22T07:25:00.766Z,232
2016-10-22T07:26:00.772Z,236
2016-10-22T07:27:00.860Z,248
2016-10-22T07:28:00.778Z,260
2016-10-22T07:29:01.114Z,272
2016-10-22T07:30:01.117Z,284
2016-10-22T07:31:01.108Z,288
2016-10-22T07:32:00.550Z,308
2016-10-22T07:33:01.135Z,348
2016-10-22T07:34:00.829Z,444
2016-10-22T07:35:00.884Z,544
2016-10-22T07:36:00.228Z,632
2016-10-22T07:37:01.000Z,724
2016-10-22T07:38:00.631Z,732
2016-10-22T07:39:00.902Z,716
2016-10-22T07:40:00.556Z,704
2016-10-22T07:41:01.297Z,696
2016-10-22T07:42:01.297Z,664
2016-10-22T07:43:00.937Z,624
2016-10-22T07:44:01.210Z,596
2016-10-22T07:45:01.086Z,520
2016-10-22T07:46:01.121Z,388
2016-10-22T07:47:00.341Z,308
2016-10-22T07:48:00.922Z,272
2016-10-22T07:49:00.304Z,276
2016-10-22T07:50:00.627Z,280
2016-10-22T07:51:00.951Z,296
2016-10-22T07:52:01.003Z,332
2016-10-22T07:53:00.333Z,388
2016-10-22T07:54:00.964Z,400
2016-10-22T07:55:00.872Z,404
2016-10-22T07:56:01.657Z,416
2016-10-22T07:57:00.714Z,432
2016-10-22T07:58:01.045Z,436
2016-10-22T07:59:00.691Z,452
2016-10-22T08:00:01.406Z,464
2016-10-22T08:01:01.065Z,476
2016-10-22T08:02:01.027Z,472
2016-10-22T08:03:01.395Z,456
2016-10-22T08:04:01.038Z,432
2016-10-22T08:05:01.293Z,424
2016-10-22T08:06:01.422Z,432
2016-10-22T08:07:00.743Z,428
2016-10-22T08:08:01.077Z,436
2016-10-22T08:09:01.435Z,460
2016-10-22T08:10:01.127Z,476
2016-10-22T08:11:00.825Z,520
2016-10-22T08:12:00.777Z,576
2016-10-22T08:13:00.844Z,544
2016-10-22T08:14:01.207Z,544
2016-10-22T08:15:01.164Z,516
2016-10-22T08:16:01.217Z,528
2016-10-22T08:17:00.503Z,600
2016-10-22T08:18:00.820Z,600
2016-10-22T08:19:01.458Z,600
2016-10-22T08:20:00.835Z,536
2016-10-22T08:21:01.486Z,476
2016-10-22T08:22:01.525Z,432
2016-10-22T08:23:00.883Z,408
2016-10-22T08:24:00.862Z,372
2016-10-22T08:25:01.232Z,360
2016-10-22T08:26:01.510Z,356
2016-10-22T08:27:01.253Z,380
2016-10-22T08:28:01.248Z,420
2016-10-22T08:29:00.906Z,468
2016-10-22T08:30:00.957Z,500
2016-10-22T08:31:00.916Z,540
2016-10-22T08:32:00.640Z,608
2016-10-22T08:33:01.609Z,712
2016-10-22T08:34:01.246Z,756
2016-10-22T08:35:01.310Z,756
2016-10-22T08:36:00.953Z,772
2016-10-22T08:37:00.966Z,736
2016-10-22T08:38:01.629Z,780
2016-10-22T08:39:01.294Z,764
2016-10-22T08:40:01.294Z,752
2016-10-22T08:41:00.988Z,780
2016-10-22T08:42:01.356Z,784
2016-10-22T08:43:01.016Z,696
2016-10-22T08:44:01.144Z,672
2016-10-22T08:45:01.124Z,648
2016-10-22T08:46:01.652Z,664
2016-10-22T08:47:02.016Z,640
2016-10-22T08:48:01.352Z,732
2016-10-22T08:49:01.412Z,752
2016-10-22T08:50:01.423Z,1088
2016-10-22T08:51:01.486Z,600
2016-10-22T08:52:01.384Z,600
2016-10-22T08:53:01.128Z,612
2016-10-22T08:54:01.776Z,620
2016-10-22T08:55:01.097Z,576
2016-10-22T08:56:01.775Z,592
2016-10-22T08:57:01.114Z,552
2016-10-22T08:58:01.469Z,492
2016-10-22T08:59:01.435Z,476
2016-10-22T09:00:01.126Z,428
2016-10-22T09:01:01.132Z,432
2016-10-22T09:02:01.505Z,440
2016-10-22T09:03:01.521Z,452
2016-10-22T09:04:01.783Z,480
2016-10-22T09:05:01.528Z,516
2016-10-22T09:06:01.223Z,532
2016-10-22T09:07:01.533Z,604
2016-10-22T09:08:01.235Z,732
2016-10-22T09:09:01.209Z,916
2016-10-22T09:10:01.522Z,1220
2016-10-22T09:11:01.572Z,1256
2016-10-22T09:12:01.472Z,1180
2016-10-22T09:13:01.223Z,924
2016-10-22T09:14:01.240Z,748
2016-10-22T09:15:01.864Z,692
2016-10-22T09:16:00.936Z,704
2016-10-22T09:17:01.573Z,676
2016-10-22T09:18:01.311Z,692
2016-10-22T09:19:01.583Z,732
2016-10-22T09:20:01.272Z,780
2016-10-22T09:21:01.603Z,796
2016-10-22T09:22:01.291Z,860
2016-10-22T09:23:02.043Z,876
2016-10-22T09:24:01.373Z,816
2016-10-22T09:25:01.689Z,856
2016-10-22T09:26:01.372Z,868
2016-10-22T09:27:01.690Z,880
2016-10-22T09:28:01.654Z,880
2016-10-22T09:29:01.397Z,912
2016-10-22T09:30:01.720Z,864
2016-10-22T09:31:02.094Z,832
2016-10-22T09:32:01.567Z,820
2016-10-22T09:33:01.375Z,832
2016-10-22T09:34:01.743Z,820
2016-10-22T09:35:01.413Z,788
2016-10-22T09:36:01.721Z,732
2016-10-22T09:37:01.783Z,672
2016-10-22T09:38:01.467Z,624
2016-10-22T09:39:01.738Z,584
2016-10-22T09:40:01.424Z,564
2016-10-22T09:41:01.475Z,536
2016-10-22T09:42:01.633Z,520
2016-10-22T09:43:01.291Z,528
2016-10-22T09:44:01.850Z,536
2016-10-22T09:45:02.077Z,536
2016-10-22T09:46:01.483Z,524
2016-10-22T09:47:01.480Z,516
2016-10-22T09:48:02.169Z,516
2016-10-22T09:49:01.546Z,516
2016-10-22T09:50:01.554Z,524
2016-10-22T09:51:02.151Z,536
2016-10-22T09:52:01.886Z,536
2016-10-22T09:53:01.213Z,548
2016-10-22T09:54:02.162Z,552
2016-10-22T09:55:01.910Z,556
2016-10-22T09:56:01.868Z,564
2016-10-22T09:57:01.610Z,564
2016-10-22T09:58:01.478Z,576
2016-10-22T09:59:02.566Z,604
2016-10-22T10:00:01.943Z,640
2016-10-22T10:01:01.953Z,668
2016-10-22T10:02:01.597Z,684
2016-10-22T10:03:01.907Z,700
2016-10-22T10:04:01.972Z,720
2016-10-22T10:05:02.242Z,752
2016-10-22T10:06:02.304Z,776
2016-10-22T10:07:01.316Z,796
2016-10-22T10:08:01.687Z,796
2016-10-22T10:09:02.333Z,828
2016-10-22T10:10:01.722Z,888
2016-10-22T10:11:02.007Z,968
2016-10-22T10:12:01.719Z,1020
2016-10-22T10:13:01.679Z,1032
2016-10-22T10:14:01.770Z,1012
2016-10-22T10:15:01.696Z,1004
2016-10-22T10:16:01.704Z,972
2016-10-22T10:17:01.767Z,972
2016-10-22T10:18:02.080Z,988
2016-10-22T10:19:02.397Z,1016
2016-10-22T10:20:01.786Z,1020
2016-10-22T10:21:01.424Z,1036
2016-10-22T10:22:02.368Z,1076
2016-10-22T10:23:01.821Z,1168
2016-10-22T10:24:01.917Z,1208
2016-10-22T10:25:02.075Z,1248
2016-10-22T10:26:01.780Z,1120
2016-10-22T10:27:02.101Z,972
2016-10-22T10:28:01.840Z,868
2016-10-22T10:29:01.486Z,684
2016-10-22T10:30:02.497Z,604
2016-10-22T10:31:02.442Z,556
2016-10-22T10:32:01.822Z,496
2016-10-22T10:33:01.880Z,444
2016-10-22T10:34:01.889Z,396
2016-10-22T10:35:01.845Z,364
2016-10-22T10:36:02.168Z,352
2016-10-22T10:37:01.979Z,364
2016-10-22T10:38:01.873Z,452
2016-10-22T10:39:02.511Z,504
2016-10-22T10:40:02.518Z,560
2016-10-22T10:41:01.946Z,612
2016-10-22T10:42:01.636Z,652
2016-10-22T10:43:01.906Z,684
2016-10-22T10:44:02.231Z,704
2016-10-22T10:45:01.924Z,732
2016-10-22T10:46:01.936Z,748
2016-10-22T10:47:01.936Z,756
2016-10-22T10:48:02.260Z,764
2016-10-22T10:49:01.957Z,764
2016-10-22T10:50:01.962Z,772
2016-10-22T10:51:02.382Z,772
2016-10-22T10:52:02.296Z,776
2016-10-22T10:53:02.658Z,780
2016-10-22T10:54:01.991Z,788
2016-10-22T10:55:02.310Z,792
2016-10-22T10:56:02.056Z,792
2016-10-22T10:57:02.325Z,792
2016-10-22T10:58:02.105Z,796
2016-10-22T10:59:02.025Z,800
2016-10-22T11:00:02.041Z,808
2016-10-22T11:01:02.096Z,812
2016-10-22T11:02:02.739Z,820
2016-10-22T11:03:02.425Z,828
2016-10-22T11:04:02.427Z,832
2016-10-22T11:05:02.073Z,832
2016-10-22T11:06:02.166Z,828
2016-10-22T11:07:02.772Z,820
2016-10-22T11:08:02.472Z,808
2016-10-22T11:09:02.466Z,796
2016-10-22T11:10:02.113Z,792
2016-10-22T11:11:02.433Z,792
2016-10-22T11:12:01.860Z,792
2016-10-22T11:13:02.449Z,804
2016-10-22T11:14:02.144Z,804
2016-10-22T11:15:02.512Z,804
2016-10-22T11:16:02.159Z,800
2016-10-22T11:17:02.167Z,796
2016-10-22T11:18:02.174Z,788
2016-10-22T11:19:02.180Z,784
2016-10-22T11:20:02.193Z,780
2016-10-22T11:21:02.198Z,772
2016-10-22T11:22:02.255Z,756
2016-10-22T11:23:02.463Z,724
2016-10-22T11:24:02.947Z,712
2016-10-22T11:25:02.543Z,728
2016-10-22T11:26:02.293Z,728
2016-10-22T11:27:02.865Z,720
2016-10-22T11:28:02.565Z,712
2016-10-22T11:29:02.622Z,704
2016-10-22T11:30:02.682Z,704
2016-10-22T11:31:03.152Z,700
2016-10-22T11:32:02.594Z,700
2016-10-22T11:33:02.333Z,692
2016-10-22T11:34:02.362Z,680
2016-10-22T11:35:02.458Z,664
2016-10-22T11:36:02.682Z,656
2016-10-22T11:37:02.637Z,644
2016-10-22T11:38:02.016Z,632
2016-10-22T11:39:02.647Z,620
2016-10-22T11:40:02.347Z,604
2016-10-22T11:41:02.450Z,592
2016-10-22T11:42:02.357Z,584
2016-10-22T11:43:02.417Z,576
2016-10-22T11:44:02.423Z,568
2016-10-22T11:45:03.005Z,568
2016-10-22T11:46:02.435Z,560
2016-10-22T11:47:02.518Z,552
2016-10-22T11:48:02.402Z,544
2016-10-22T11:49:02.094Z,524
2016-10-22T11:50:02.414Z,512
2016-10-22T11:51:03.096Z,500
2016-10-22T11:52:02.490Z,488
2016-10-22T11:53:02.751Z,480
2016-10-22T11:54:02.185Z,472
2016-10-22T11:55:02.609Z,472
2016-10-22T11:56:02.567Z,476
2016-10-22T11:57:02.167Z,476
2016-10-22T11:58:02.802Z,480
2016-10-22T11:59:02.878Z,484
2016-10-22T12:00:02.911Z,484
2016-10-22T12:01:03.128Z,492
2016-10-22T12:02:02.558Z,496
2016-10-22T12:03:02.253Z,500
2016-10-22T12:04:02.532Z,500
2016-10-22T12:05:02.550Z,504
2016-10-22T12:06:02.539Z,504
2016-10-22T12:07:02.686Z,504
2016-10-22T12:08:02.559Z,504
2016-10-22T12:09:02.881Z,504
2016-10-22T12:10:02.975Z,504
2016-10-22T12:11:02.991Z,500
2016-10-22T12:12:02.954Z,504
2016-10-22T12:13:02.594Z,504
2016-10-22T12:14:02.288Z,500
2016-10-22T12:15:02.706Z,496
2016-10-22T12:16:02.937Z,496
2016-10-22T12:17:02.943Z,492
2016-10-22T12:18:02.994Z,496
2016-10-22T12:19:02.688Z,500
2016-10-22T12:20:02.957Z,500
2016-10-22T12:21:03.330Z,504
2016-10-22T12:22:02.659Z,500
2016-10-22T12:23:03.294Z,500
2016-10-22T12:24:03.041Z,496
2016-10-22T12:25:02.683Z,496
2016-10-22T12:26:02.692Z,492
2016-10-22T12:27:03.069Z,492
2016-10-22T12:28:03.385Z,492
2016-10-22T12:29:02.768Z,492
2016-10-22T12:30:03.397Z,488
2016-10-22T12:31:02.829Z,484
2016-10-22T12:32:03.363Z,484
2016-10-22T12:33:02.482Z,484
2016-10-22T12:34:02.851Z,488
2016-10-22T12:35:03.080Z,488
2016-10-22T12:36:03.132Z,484
2016-10-22T12:37:03.088Z,488
2016-10-22T12:38:03.099Z,488
2016-10-22T12:39:03.169Z,492
2016-10-22T12:40:02.801Z,492
2016-10-22T12:41:02.805Z,500
2016-10-22T12:42:03.184Z,500
2016-10-22T12:43:03.488Z,504
2016-10-22T12:44:02.826Z,496
2016-10-22T12:45:02.840Z,496
2016-10-22T12:46:03.164Z,492
2016-10-22T12:47:03.168Z,492
2016-10-22T12:48:02.605Z,492
2016-10-22T12:49:02.939Z,492
2016-10-22T12:50:02.931Z,496
2016-10-22T12:51:02.936Z,484
2016-10-22T12:52:03.555Z,500
2016-10-22T12:53:03.261Z,496
2016-10-22T12:54:03.220Z,496
2016-10-22T12:55:02.968Z,488
2016-10-22T12:56:03.024Z,484
2016-10-22T12:57:03.344Z,480
2016-10-22T12:58:03.613Z,480
2016-10-22T12:59:03.306Z,480
2016-10-22T13:00:03.355Z,480
2016-10-22T13:01:03.324Z,476
2016-10-22T13:02:03.285Z,476
2016-10-22T13:03:03.604Z,476
2016-10-22T13:04:03.297Z,480
2016-10-22T13:05:03.619Z,488
2016-10-22T13:06:02.999Z,484
2016-10-22T13:07:03.370Z,488
2016-10-22T13:08:03.065Z,484
2016-10-22T13:09:03.030Z,484
2016-10-22T13:10:03.709Z,476
2016-10-22T13:11:03.663Z,476
2016-10-22T13:12:03.413Z,472
2016-10-22T13:13:03.067Z,472
2016-10-22T13:14:03.496Z,468
2016-10-22T13:15:03.541Z,468
2016-10-22T13:16:03.757Z,468
2016-10-22T13:17:03.401Z,468
2016-10-22T13:18:03.155Z,468
2016-10-22T13:19:03.414Z,468
2016-10-22T13:20:03.204Z,464
2016-10-22T13:21:03.429Z,460
2016-10-22T13:22:02.818Z,448
2016-10-22T13:23:03.133Z,444
2016-10-22T13:24:03.451Z,436
2016-10-22T13:25:03.707Z,432
2016-10-22T13:26:03.464Z,432
2016-10-22T13:27:03.836Z,432
2016-10-22T13:28:03.166Z,424
2016-10-22T13:29:03.488Z,424
2016-10-22T13:30:03.499Z,420
2016-10-22T13:31:03.822Z,420
2016-10-22T13:32:03.310Z,420
2016-10-22T13:33:03.529Z,416
2016-10-22T13:34:03.585Z,416
2016-10-22T13:35:03.279Z,412
2016-10-22T13:36:03.593Z,412
2016-10-22T13:37:03.601Z,408
2016-10-22T13:38:03.606Z,412
2016-10-22T13:39:03.566Z,412
2016-10-22T13:40:03.886Z,416
2016-10-22T13:41:03.281Z,416
2016-10-22T13:42:03.689Z,416
2016-10-22T13:43:03.910Z,412
2016-10-22T13:44:03.614Z,412
2016-10-22T13:45:03.309Z,412
2016-10-22T13:46:03.003Z,416
2016-10-22T13:47:03.053Z,416
2016-10-22T13:48:03.327Z,412
2016-10-22T13:49:03.430Z,408
2016-10-22T13:50:03.345Z,408
2016-10-22T13:51:03.768Z,412
2016-10-22T13:52:03.669Z,412
2016-10-22T13:53:03.361Z,416
2016-10-22T13:54:03.419Z,416
2016-10-22T13:55:03.775Z,420
2016-10-22T13:56:03.996Z,420
2016-10-22T13:57:03.702Z,416
2016-10-22T13:58:04.074Z,420
2016-10-22T13:59:03.457Z,424
2016-10-22T14:00:03.414Z,420
2016-10-22T14:01:03.740Z,412
2016-10-22T14:02:04.053Z,408
2016-10-22T14:03:03.447Z,408
2016-10-22T14:04:03.445Z,400
2016-10-22T14:05:04.081Z,396
2016-10-22T14:06:04.147Z,392
2016-10-22T14:07:04.169Z,388
2016-10-22T14:08:03.794Z,388
2016-10-22T14:09:03.863Z,384
2016-10-22T14:10:03.499Z,380
2016-10-22T14:11:03.832Z,376
2016-10-22T14:12:03.818Z,372
2016-10-22T14:13:03.253Z,368